Airport Name : Cam Ranh

Other Name : Cam Ranh

ICAO : VVCR

IATA :

FAA :

Latitude : 11.998153

Longitude : 109.219372

Country : Vietnam

Local Date and Time : 1/22/2018 11:10:00 PM

 

TAF (Terminal Aerodrome Forecast)

TAF VVCR 221100Z 2212/2312 07009KT 9999 SCT015 SCT050

 

METAR (METeorological Aerodrome Report)

VVCR 221600Z 03007KT 9999 FEW015 BKN050 26/21 Q1011 NOSIG

VVCR 221530Z 03009KT 9999 FEW015 BKN050 26/21 Q1011 NOSIG

VVCR 221500Z 03008KT 9999 FEW015 BKN050 26/21 Q1011 NOSIG

VVCR 221430Z 02009KT 9999 FEW015 BKN050 26/21 Q1011 NOSIG

VVCR 221400Z 04008KT 9999 FEW015 BKN050 26/22 Q1011 NOSIG

VVCR 221330Z 05006KT 9999 FEW015 BKN050 26/22 Q1011 NOSIG

VVCR 221300Z 05006KT 9999 FEW015 BKN050 26/22 Q1011 NOSIG

VVCR 221230Z 05007KT 9999 FEW015 BKN050 26/22 Q1010 NOSIG